OAL320 LICJ-LGKR
Flight info
| Callsign | OAL320 |
|---|---|
| Flight time | 0h 58m |
| Altitude | 35000 |
| Route | ROSAS DCT CRN L869 LATAN |
| Aircraft | A20N/M-SDE2E3FGHIRWXY/LB1 |
Departure
| Time | 2026-04-27 14:56 |
|---|---|
| Airport | Falcone–Borsellino Airport (LICJ) |
Arrival
| Time | 2026-04-27 15:54 |
|---|---|
| Airport | Corfu Ioannis Kapodistrias International Airport (LGKR) |
| Time | Latitude | Longitude | Altitude | Speed | Heading |
|---|---|---|---|---|---|
| 2026-04-27 14:39 | 38.18531 | 13.10557 | 65 ft | 0 kts | 337° |
| 2026-04-27 14:42 | 38.18529 | 13.10558 | 65 ft | 1 kts | 337° |
| 2026-04-27 14:43 | 38.18522 | 13.10562 | 64 ft | 1 kts | 337° |
| 2026-04-27 14:43 | 38.18515 | 13.10566 | 57 ft | 1 kts | 337° |
| 2026-04-27 14:43 | 38.18508 | 13.10569 | 59 ft | 1 kts | 337° |
| 2026-04-27 14:43 | 38.18501 | 13.10573 | 57 ft | 1 kts | 337° |
| 2026-04-27 14:44 | 38.18494 | 13.10577 | 60 ft | 1 kts | 337° |
| 2026-04-27 14:44 | 38.18487 | 13.10581 | 57 ft | 1 kts | 337° |
| 2026-04-27 14:44 | 38.18480 | 13.10585 | 59 ft | 1 kts | 337° |
| 2026-04-27 14:44 | 38.18473 | 13.10589 | 59 ft | 1 kts | 305° |
| 2026-04-27 14:45 | 38.18469 | 13.10598 | 55 ft | 1 kts | 270° |
| 2026-04-27 14:45 | 38.18469 | 13.10604 | 55 ft | 0 kts | 246° |
| 2026-04-27 14:47 | 38.18469 | 13.10603 | 55 ft | 1 kts | 246° |
| 2026-04-27 14:47 | 38.18458 | 13.10574 | 61 ft | 6 kts | 245° |
| 2026-04-27 14:48 | 38.18426 | 13.10520 | 63 ft | 10 kts | 213° |
| 2026-04-27 14:48 | 38.18358 | 13.10486 | 65 ft | 7 kts | 199° |
| 2026-04-27 14:48 | 38.18338 | 13.10477 | 65 ft | 1 kts | 202° |
| 2026-04-27 14:49 | 38.18320 | 13.10447 | 58 ft | 7 kts | 242° |
| 2026-04-27 14:49 | 38.18292 | 13.10365 | 60 ft | 12 kts | 247° |
| 2026-04-27 14:49 | 38.18270 | 13.10298 | 57 ft | 6 kts | 248° |
| 2026-04-27 14:49 | 38.18250 | 13.10235 | 63 ft | 9 kts | 247° |
| 2026-04-27 14:50 | 38.18219 | 13.10143 | 64 ft | 13 kts | 246° |
| 2026-04-27 14:50 | 38.18178 | 13.10023 | 61 ft | 17 kts | 246° |
| 2026-04-27 14:50 | 38.18150 | 13.09940 | 63 ft | 0 kts | 246° |
| 2026-04-27 14:51 | 38.18149 | 13.09937 | 63 ft | 2 kts | 246° |
| 2026-04-27 14:51 | 38.18142 | 13.09918 | 62 ft | 5 kts | 246° |
| 2026-04-27 14:52 | 38.18093 | 13.09865 | 60 ft | 9 kts | 176° |
| 2026-04-27 14:52 | 38.18035 | 13.09834 | 65 ft | 11 kts | 245° |
| 2026-04-27 14:52 | 38.17999 | 13.09728 | 60 ft | 15 kts | 246° |
| 2026-04-27 14:52 | 38.17955 | 13.09596 | 60 ft | 18 kts | 246° |
| 2026-04-27 14:53 | 38.17902 | 13.09442 | 60 ft | 20 kts | 246° |
| 2026-04-27 14:53 | 38.17848 | 13.09277 | 71 ft | 20 kts | 248° |
| 2026-04-27 14:53 | 38.17797 | 13.09125 | 63 ft | 21 kts | 248° |
| 2026-04-27 14:53 | 38.17738 | 13.08961 | 63 ft | 20 kts | 236° |
| 2026-04-27 14:54 | 38.17647 | 13.08867 | 62 ft | 13 kts | 216° |
| 2026-04-27 14:54 | 38.17597 | 13.08818 | 61 ft | 15 kts | 217° |
| 2026-04-27 14:54 | 38.17521 | 13.08754 | 60 ft | 11 kts | 200° |
| 2026-04-27 14:54 | 38.17483 | 13.08800 | 70 ft | 10 kts | 67° |
| 2026-04-27 14:55 | 38.17487 | 13.08813 | 66 ft | 0 kts | 66° |
| 2026-04-27 14:55 | 38.17529 | 13.08941 | 63 ft | 44 kts | 67° |
| 2026-04-27 14:55 | 38.17736 | 13.09553 | 63 ft | 104 kts | 67° |
| 2026-04-27 14:55 | 38.18080 | 13.10581 | 65 ft | 148 kts | 66° |
| 2026-04-27 14:56 | 38.18489 | 13.11826 | 533 ft | 150 kts | 68° |
| 2026-04-27 14:56 | 38.18863 | 13.13066 | 1201 ft | 152 kts | 69° |
| 2026-04-27 14:56 | 38.19245 | 13.14315 | 1804 ft | 151 kts | 66° |
| 2026-04-27 14:56 | 38.19675 | 13.15552 | 2304 ft | 158 kts | 64° |
| 2026-04-27 14:57 | 38.20168 | 13.16897 | 2622 ft | 178 kts | 64° |
| 2026-04-27 14:57 | 38.20710 | 13.18414 | 3012 ft | 199 kts | 64° |
| 2026-04-27 14:57 | 38.21608 | 13.19871 | 3391 ft | 224 kts | 34° |
| 2026-04-27 14:57 | 38.23068 | 13.20776 | 3909 ft | 246 kts | 21° |
| 2026-04-27 14:58 | 38.24725 | 13.21626 | 4485 ft | 267 kts | 21° |
| 2026-04-27 14:58 | 38.26480 | 13.22535 | 5320 ft | 275 kts | 21° |
| 2026-04-27 14:58 | 38.28250 | 13.23464 | 6369 ft | 275 kts | 21° |
| 2026-04-27 14:58 | 38.30028 | 13.24407 | 7312 ft | 279 kts | 21° |
| 2026-04-27 14:59 | 38.31835 | 13.25369 | 8235 ft | 284 kts | 21° |
| 2026-04-27 14:59 | 38.33669 | 13.26348 | 9171 ft | 288 kts | 21° |
| 2026-04-27 14:59 | 38.35528 | 13.27341 | 10098 ft | 292 kts | 21° |
| 2026-04-27 14:59 | 38.37440 | 13.28362 | 10693 ft | 308 kts | 21° |
| 2026-04-27 15:00 | 38.39492 | 13.29455 | 11019 ft | 331 kts | 21° |
| 2026-04-27 15:00 | 38.41641 | 13.30602 | 11508 ft | 345 kts | 21° |
| 2026-04-27 15:00 | 38.43865 | 13.31792 | 12360 ft | 348 kts | 21° |
| 2026-04-27 15:00 | 38.46108 | 13.32993 | 13193 ft | 352 kts | 21° |
| 2026-04-27 15:01 | 38.48381 | 13.34210 | 14014 ft | 356 kts | 21° |
| 2026-04-27 15:01 | 38.50681 | 13.35442 | 14739 ft | 360 kts | 21° |
| 2026-04-27 15:01 | 38.53002 | 13.36685 | 15458 ft | 364 kts | 21° |
| 2026-04-27 15:01 | 38.55349 | 13.37942 | 16183 ft | 368 kts | 21° |
| 2026-04-27 15:02 | 38.57724 | 13.39215 | 16877 ft | 372 kts | 21° |
| 2026-04-27 15:02 | 38.60121 | 13.40502 | 17593 ft | 376 kts | 22° |
| 2026-04-27 15:02 | 38.62540 | 13.41801 | 18289 ft | 380 kts | 22° |
| 2026-04-27 15:02 | 38.64988 | 13.43117 | 18902 ft | 383 kts | 22° |
| 2026-04-27 15:03 | 38.67455 | 13.44444 | 19531 ft | 386 kts | 22° |
| 2026-04-27 15:03 | 38.69945 | 13.45785 | 20141 ft | 389 kts | 21° |
| 2026-04-27 15:03 | 38.72450 | 13.47134 | 20747 ft | 393 kts | 21° |
| 2026-04-27 15:03 | 38.74981 | 13.48498 | 21347 ft | 396 kts | 21° |
| 2026-04-27 15:04 | 38.77528 | 13.49872 | 21939 ft | 399 kts | 21° |
| 2026-04-27 15:04 | 38.80081 | 13.51315 | 22510 ft | 404 kts | 27° |
| 2026-04-27 15:04 | 38.82372 | 13.53438 | 23081 ft | 409 kts | 43° |
| 2026-04-27 15:04 | 38.84159 | 13.56309 | 23638 ft | 415 kts | 58° |
| 2026-04-27 15:05 | 38.85312 | 13.59720 | 24091 ft | 421 kts | 73° |
| 2026-04-27 15:05 | 38.85787 | 13.63454 | 24542 ft | 426 kts | 84° |
| 2026-04-27 15:05 | 38.85968 | 13.67267 | 24983 ft | 430 kts | 86° |
| 2026-04-27 15:05 | 38.86105 | 13.71122 | 25419 ft | 434 kts | 86° |
| 2026-04-27 15:06 | 38.86260 | 13.75005 | 25842 ft | 438 kts | 86° |
| 2026-04-27 15:06 | 38.86442 | 13.78919 | 26268 ft | 441 kts | 85° |
| 2026-04-27 15:06 | 38.86643 | 13.82854 | 26689 ft | 444 kts | 85° |
| 2026-04-27 15:06 | 38.86853 | 13.86829 | 27085 ft | 448 kts | 85° |
| 2026-04-27 15:07 | 38.87066 | 13.90821 | 27498 ft | 451 kts | 85° |
| 2026-04-27 15:07 | 38.87281 | 13.94851 | 27881 ft | 454 kts | 85° |
| 2026-04-27 15:07 | 38.87492 | 13.98848 | 28257 ft | 457 kts | 85° |
| 2026-04-27 15:07 | 38.87706 | 14.02928 | 28634 ft | 460 kts | 85° |
| 2026-04-27 15:08 | 38.87919 | 14.07032 | 28988 ft | 463 kts | 85° |
| 2026-04-27 15:08 | 38.88132 | 14.11168 | 29338 ft | 465 kts | 85° |
| 2026-04-27 15:08 | 38.88345 | 14.15324 | 29674 ft | 468 kts | 85° |
| 2026-04-27 15:08 | 38.88558 | 14.19506 | 30022 ft | 471 kts | 85° |
| 2026-04-27 15:09 | 38.88770 | 14.23717 | 30350 ft | 473 kts | 85° |
| 2026-04-27 15:09 | 38.88982 | 14.27937 | 30682 ft | 475 kts | 85° |
| 2026-04-27 15:09 | 38.89193 | 14.32166 | 31005 ft | 476 kts | 85° |
| 2026-04-27 15:09 | 38.89403 | 14.36419 | 31355 ft | 477 kts | 85° |
| 2026-04-27 15:10 | 38.89612 | 14.40669 | 31767 ft | 477 kts | 85° |
| 2026-04-27 15:10 | 38.89818 | 14.44906 | 32196 ft | 475 kts | 85° |
| 2026-04-27 15:10 | 38.90023 | 14.49133 | 32614 ft | 474 kts | 85° |
| 2026-04-27 15:10 | 38.90226 | 14.53351 | 33015 ft | 473 kts | 85° |
| 2026-04-27 15:11 | 38.90427 | 14.57565 | 33407 ft | 472 kts | 86° |
| 2026-04-27 15:11 | 38.90625 | 14.61765 | 33791 ft | 471 kts | 86° |
| 2026-04-27 15:11 | 38.90822 | 14.65959 | 34156 ft | 470 kts | 86° |
| 2026-04-27 15:11 | 38.91018 | 14.70149 | 34453 ft | 470 kts | 86° |
| 2026-04-27 15:12 | 38.91211 | 14.74333 | 34721 ft | 470 kts | 86° |
| 2026-04-27 15:12 | 38.91403 | 14.78523 | 34990 ft | 470 kts | 86° |
| 2026-04-27 15:12 | 38.91593 | 14.82707 | 35106 ft | 470 kts | 86° |
| 2026-04-27 15:12 | 38.91781 | 14.86885 | 35109 ft | 468 kts | 86° |
| 2026-04-27 15:13 | 38.92152 | 14.95232 | 35108 ft | 468 kts | 86° |
| 2026-04-27 15:13 | 38.92518 | 15.03575 | 35108 ft | 468 kts | 86° |
| 2026-04-27 15:14 | 38.92875 | 15.11859 | 35108 ft | 468 kts | 86° |
| 2026-04-27 15:14 | 38.93228 | 15.20201 | 35110 ft | 468 kts | 86° |
| 2026-04-27 15:15 | 38.93576 | 15.28550 | 35112 ft | 468 kts | 86° |
| 2026-04-27 15:15 | 38.93918 | 15.36892 | 35110 ft | 468 kts | 86° |
| 2026-04-27 15:16 | 38.94254 | 15.45249 | 35111 ft | 468 kts | 86° |
| 2026-04-27 15:16 | 38.94584 | 15.53591 | 35117 ft | 468 kts | 86° |
| 2026-04-27 15:17 | 38.94907 | 15.61939 | 35116 ft | 468 kts | 86° |
| 2026-04-27 15:17 | 38.95225 | 15.70280 | 35113 ft | 468 kts | 86° |
| 2026-04-27 15:18 | 38.95537 | 15.78624 | 35115 ft | 467 kts | 86° |
| 2026-04-27 15:18 | 38.95842 | 15.86962 | 35112 ft | 467 kts | 86° |
| 2026-04-27 15:19 | 38.96142 | 15.95295 | 35106 ft | 467 kts | 86° |
| 2026-04-27 15:19 | 38.96435 | 16.03629 | 35104 ft | 467 kts | 86° |
| 2026-04-27 15:20 | 38.96722 | 16.11957 | 35103 ft | 466 kts | 86° |
| 2026-04-27 15:20 | 38.97004 | 16.20288 | 35101 ft | 467 kts | 87° |
| 2026-04-27 15:21 | 38.97277 | 16.28562 | 35101 ft | 467 kts | 87° |
| 2026-04-27 15:21 | 38.97549 | 16.36952 | 35103 ft | 467 kts | 87° |
| 2026-04-27 15:22 | 38.97813 | 16.45285 | 35108 ft | 467 kts | 87° |
| 2026-04-27 15:22 | 38.98071 | 16.53625 | 35108 ft | 467 kts | 87° |
| 2026-04-27 15:23 | 38.98323 | 16.61966 | 35102 ft | 467 kts | 87° |
| 2026-04-27 15:23 | 38.98568 | 16.70248 | 35109 ft | 467 kts | 87° |
| 2026-04-27 15:24 | 38.98808 | 16.78593 | 35106 ft | 467 kts | 87° |
| 2026-04-27 15:24 | 38.99042 | 16.86931 | 35103 ft | 467 kts | 87° |
| 2026-04-27 15:25 | 38.99270 | 16.95262 | 35103 ft | 466 kts | 87° |
| 2026-04-27 15:25 | 38.99495 | 17.03596 | 35102 ft | 466 kts | 87° |
| 2026-04-27 15:26 | 39.00176 | 17.11865 | 35099 ft | 465 kts | 77° |
| 2026-04-27 15:26 | 39.01530 | 17.20000 | 35096 ft | 465 kts | 77° |
| 2026-04-27 15:27 | 39.02867 | 17.28134 | 35093 ft | 465 kts | 77° |
| 2026-04-27 15:27 | 39.04193 | 17.36279 | 35091 ft | 465 kts | 77° |
| 2026-04-27 15:28 | 39.05513 | 17.44431 | 35091 ft | 465 kts | 77° |
| 2026-04-27 15:28 | 39.06826 | 17.52582 | 35088 ft | 466 kts | 77° |
| 2026-04-27 15:29 | 39.08127 | 17.60691 | 35088 ft | 466 kts | 77° |
| 2026-04-27 15:29 | 39.09431 | 17.68859 | 35089 ft | 466 kts | 77° |
| 2026-04-27 15:30 | 39.10730 | 17.77034 | 35095 ft | 466 kts | 77° |
| 2026-04-27 15:30 | 39.12021 | 17.85221 | 35089 ft | 467 kts | 78° |
| 2026-04-27 15:31 | 39.13291 | 17.93388 | 34832 ft | 463 kts | 78° |
| 2026-04-27 15:31 | 39.13922 | 17.97454 | 34295 ft | 462 kts | 78° |
| 2026-04-27 15:31 | 39.14550 | 18.01513 | 33607 ft | 462 kts | 78° |
| 2026-04-27 15:32 | 39.15178 | 18.05579 | 32819 ft | 463 kts | 78° |
| 2026-04-27 15:32 | 39.15806 | 18.09653 | 31967 ft | 465 kts | 78° |
| 2026-04-27 15:32 | 39.16436 | 18.13749 | 31161 ft | 467 kts | 78° |
| 2026-04-27 15:32 | 39.17065 | 18.17851 | 30420 ft | 467 kts | 78° |
| 2026-04-27 15:33 | 39.17691 | 18.21947 | 29763 ft | 463 kts | 78° |
| 2026-04-27 15:33 | 39.18309 | 18.26001 | 29120 ft | 459 kts | 78° |
| 2026-04-27 15:33 | 39.18920 | 18.30015 | 28487 ft | 454 kts | 78° |
| 2026-04-27 15:33 | 39.19525 | 18.33999 | 27871 ft | 450 kts | 78° |
| 2026-04-27 15:34 | 39.20122 | 18.37940 | 27250 ft | 446 kts | 77° |
| 2026-04-27 15:34 | 39.20712 | 18.41847 | 26650 ft | 442 kts | 77° |
| 2026-04-27 15:34 | 39.21297 | 18.45724 | 26066 ft | 439 kts | 77° |
| 2026-04-27 15:34 | 39.21875 | 18.49570 | 25490 ft | 435 kts | 77° |
| 2026-04-27 15:35 | 39.22448 | 18.53383 | 24916 ft | 432 kts | 77° |
| 2026-04-27 15:35 | 39.23015 | 18.57171 | 24351 ft | 429 kts | 77° |
| 2026-04-27 15:35 | 39.23578 | 18.60939 | 23797 ft | 426 kts | 77° |
| 2026-04-27 15:35 | 39.24134 | 18.64675 | 23168 ft | 423 kts | 77° |
| 2026-04-27 15:36 | 39.24686 | 18.68388 | 22531 ft | 420 kts | 77° |
| 2026-04-27 15:36 | 39.25227 | 18.72030 | 21921 ft | 417 kts | 77° |
| 2026-04-27 15:36 | 39.25769 | 18.75692 | 21302 ft | 414 kts | 77° |
| 2026-04-27 15:36 | 39.26307 | 18.79331 | 20699 ft | 412 kts | 77° |
| 2026-04-27 15:37 | 39.26840 | 18.82950 | 20107 ft | 409 kts | 77° |
| 2026-04-27 15:37 | 39.27370 | 18.86548 | 19526 ft | 407 kts | 78° |
| 2026-04-27 15:37 | 39.27894 | 18.90119 | 18963 ft | 404 kts | 78° |
| 2026-04-27 15:37 | 39.28414 | 18.93675 | 18403 ft | 402 kts | 78° |
| 2026-04-27 15:38 | 39.28930 | 18.97205 | 17767 ft | 399 kts | 78° |
| 2026-04-27 15:38 | 39.29442 | 19.00711 | 17136 ft | 397 kts | 78° |
| 2026-04-27 15:38 | 39.29947 | 19.04200 | 16517 ft | 394 kts | 78° |
| 2026-04-27 15:38 | 39.30445 | 19.07666 | 15911 ft | 391 kts | 78° |
| 2026-04-27 15:39 | 39.30939 | 19.11107 | 15321 ft | 388 kts | 78° |
| 2026-04-27 15:39 | 39.31422 | 19.14482 | 15100 ft | 375 kts | 78° |
| 2026-04-27 15:39 | 39.31890 | 19.17762 | 14702 ft | 369 kts | 78° |
| 2026-04-27 15:39 | 39.32353 | 19.21001 | 14220 ft | 365 kts | 78° |
| 2026-04-27 15:40 | 39.32811 | 19.24210 | 13744 ft | 362 kts | 79° |
| 2026-04-27 15:40 | 39.33266 | 19.27391 | 13220 ft | 358 kts | 79° |
| 2026-04-27 15:40 | 39.33720 | 19.30537 | 12692 ft | 355 kts | 79° |
| 2026-04-27 15:40 | 39.34171 | 19.33659 | 12183 ft | 352 kts | 79° |
| 2026-04-27 15:41 | 39.34618 | 19.36758 | 11666 ft | 350 kts | 79° |
| 2026-04-27 15:41 | 39.35060 | 19.39837 | 11147 ft | 348 kts | 79° |
| 2026-04-27 15:41 | 39.35499 | 19.42897 | 10634 ft | 345 kts | 79° |
| 2026-04-27 15:41 | 39.35934 | 19.45936 | 10114 ft | 340 kts | 79° |
| 2026-04-27 15:42 | 39.36343 | 19.48800 | 9603 ft | 329 kts | 80° |
| 2026-04-27 15:42 | 39.36752 | 19.51671 | 9058 ft | 319 kts | 80° |
| 2026-04-27 15:42 | 39.37015 | 19.53523 | 8700 ft | 314 kts | 80° |
| 2026-04-27 15:42 | 39.37394 | 19.56263 | 8162 ft | 306 kts | 84° |
| 2026-04-27 15:43 | 39.37265 | 19.58939 | 7638 ft | 296 kts | 107° |
| 2026-04-27 15:43 | 39.36407 | 19.61301 | 7128 ft | 288 kts | 127° |
| 2026-04-27 15:43 | 39.35122 | 19.63243 | 6624 ft | 282 kts | 131° |
| 2026-04-27 15:43 | 39.33897 | 19.65194 | 6138 ft | 276 kts | 128° |
| 2026-04-27 15:44 | 39.32793 | 19.67196 | 5636 ft | 272 kts | 124° |
| 2026-04-27 15:44 | 39.31794 | 19.69261 | 5092 ft | 270 kts | 121° |
| 2026-04-27 15:44 | 39.30897 | 19.71383 | 4556 ft | 268 kts | 118° |
| 2026-04-27 15:44 | 39.30102 | 19.73549 | 4033 ft | 267 kts | 115° |
| 2026-04-27 15:45 | 39.29405 | 19.75766 | 3532 ft | 264 kts | 111° |
| 2026-04-27 15:45 | 39.28812 | 19.78004 | 3312 ft | 266 kts | 109° |
| 2026-04-27 15:45 | 39.28307 | 19.80300 | 3186 ft | 265 kts | 105° |
| 2026-04-27 15:45 | 39.27901 | 19.82622 | 3059 ft | 266 kts | 102° |
| 2026-04-27 15:46 | 39.27591 | 19.84988 | 2945 ft | 267 kts | 99° |
| 2026-04-27 15:46 | 39.27388 | 19.87353 | 2903 ft | 264 kts | 96° |
| 2026-04-27 15:46 | 39.27290 | 19.89668 | 2896 ft | 251 kts | 93° |
| 2026-04-27 15:46 | 39.27288 | 19.91854 | 2896 ft | 236 kts | 90° |
| 2026-04-27 15:47 | 39.27363 | 19.93906 | 2894 ft | 223 kts | 88° |
| 2026-04-27 15:47 | 39.27509 | 19.95929 | 2899 ft | 228 kts | 85° |
| 2026-04-27 15:47 | 39.27862 | 19.97902 | 2897 ft | 227 kts | 63° |
| 2026-04-27 15:47 | 39.28927 | 19.99396 | 2898 ft | 231 kts | 30° |
| 2026-04-27 15:48 | 39.30458 | 19.99935 | 2899 ft | 230 kts | 359° |
| 2026-04-27 15:48 | 39.32040 | 19.99684 | 2892 ft | 229 kts | 346° |
| 2026-04-27 15:48 | 39.33583 | 19.99162 | 2890 ft | 229 kts | 342° |
| 2026-04-27 15:49 | 39.36534 | 19.98174 | 2887 ft | 205 kts | 353° |
| 2026-04-27 15:49 | 39.37942 | 19.98071 | 2891 ft | 209 kts | 356° |
| 2026-04-27 15:49 | 39.39379 | 19.97983 | 2889 ft | 205 kts | 356° |
| 2026-04-27 15:49 | 39.40830 | 19.97899 | 2893 ft | 207 kts | 356° |
| 2026-04-27 15:50 | 39.42239 | 19.97786 | 2843 ft | 204 kts | 350° |
| 2026-04-27 15:50 | 39.43608 | 19.97339 | 2654 ft | 203 kts | 342° |
| 2026-04-27 15:50 | 39.44944 | 19.96820 | 2339 ft | 199 kts | 342° |
| 2026-04-27 15:50 | 39.46256 | 19.96316 | 2067 ft | 188 kts | 343° |
| 2026-04-27 15:51 | 39.47454 | 19.95867 | 1854 ft | 172 kts | 343° |
| 2026-04-27 15:51 | 39.48544 | 19.95460 | 1706 ft | 151 kts | 343° |
| 2026-04-27 15:51 | 39.49478 | 19.95114 | 1683 ft | 136 kts | 343° |
| 2026-04-27 15:51 | 39.50409 | 19.94767 | 1654 ft | 139 kts | 343° |
| 2026-04-27 15:52 | 39.51322 | 19.94401 | 1455 ft | 136 kts | 338° |
| 2026-04-27 15:52 | 39.52192 | 19.93926 | 1275 ft | 135 kts | 336° |
| 2026-04-27 15:52 | 39.53053 | 19.93449 | 1089 ft | 134 kts | 335° |
| 2026-04-27 15:52 | 39.53912 | 19.92973 | 932 ft | 135 kts | 336° |
| 2026-04-27 15:53 | 39.54822 | 19.92695 | 780 ft | 134 kts | 348° |
| 2026-04-27 15:53 | 39.55730 | 19.92460 | 637 ft | 133 kts | 348° |
| 2026-04-27 15:53 | 39.56633 | 19.92222 | 466 ft | 133 kts | 344° |
| 2026-04-27 15:53 | 39.57536 | 19.91986 | 337 ft | 132 kts | 343° |
| 2026-04-27 15:54 | 39.58422 | 19.91677 | 240 ft | 132 kts | 346° |
| 2026-04-27 15:54 | 39.59318 | 19.91440 | 47 ft | 129 kts | 343° |
| 2026-04-27 15:54 | 39.60089 | 19.91241 | 21 ft | 86 kts | 349° |
| 2026-04-27 15:54 | 39.60452 | 19.91147 | 19 ft | 10 kts | 348° |
| 2026-04-27 15:55 | 39.60519 | 19.91157 | 18 ft | 12 kts | 18° |
| 2026-04-27 15:55 | 39.60587 | 19.91205 | 20 ft | 7 kts | 39° |
| 2026-04-27 15:55 | 39.60595 | 19.91233 | 18 ft | 0 kts | 85° |
| 2026-04-27 15:56 | 39.60596 | 19.91250 | 18 ft | 5 kts | 90° |
| 2026-04-27 15:57 | 39.60571 | 19.91309 | 19 ft | 8 kts | 134° |
| 2026-04-27 15:57 | 39.60549 | 19.91348 | 18 ft | 5 kts | 99° |
| 2026-04-27 15:57 | 39.60552 | 19.91386 | 18 ft | 3 kts | 79° |
| 2026-04-27 15:57 | 39.60553 | 19.91391 | 19 ft | 0 kts | 77° |